createdAt,value
2023-08-15T00:03:03.225Z,23.34
2023-08-15T00:06:06.203Z,24.07
2023-08-15T00:09:10.222Z,26.38
2023-08-15T00:12:13.111Z,28.56
2023-08-15T00:15:16.936Z,28.98
2023-08-15T00:18:20.203Z,29.56
2023-08-15T00:21:23.909Z,29.67
2023-08-15T00:24:27.476Z,29.60
2023-08-15T00:27:31.338Z,30.64
2023-08-15T00:30:35.108Z,31.24
2023-08-15T00:33:38.484Z,32.11
2023-08-15T00:36:41.768Z,32.83
2023-08-15T00:39:45.807Z,32.21
2023-08-15T00:42:49.436Z,30.61
2023-08-15T00:45:53.874Z,31.13
2023-08-15T00:49:00.488Z,32.05
2023-08-15T00:52:05.555Z,32.28
2023-08-15T00:55:11.359Z,32.52
2023-08-15T00:58:14.933Z,32.64
2023-08-15T01:01:19.532Z,32.59
2023-08-15T01:04:23.682Z,32.57
2023-08-15T01:07:27.059Z,33.07
2023-08-15T01:10:31.287Z,34.10
2023-08-15T01:14:01.722Z,34.90
2023-08-15T01:17:07.325Z,35.10
2023-08-15T01:20:16.211Z,34.26
2023-08-15T01:23:30.697Z,34.00
2023-08-15T01:26:34.509Z,34.08
2023-08-15T01:29:37.867Z,33.87
2023-08-15T01:32:46.709Z,34.19
2023-08-15T01:35:57.429Z,35.05
2023-08-15T01:39:04.821Z,36.13
2023-08-15T01:42:08.857Z,35.21
2023-08-15T01:45:13.389Z,34.46
2023-08-15T01:48:17.348Z,35.03
2023-08-15T01:51:20.452Z,35.21
2023-08-15T01:54:23.538Z,35.38
2023-08-15T01:57:26.850Z,34.63
2023-08-15T02:00:29.907Z,34.52
2023-08-15T02:03:32.799Z,34.66
2023-08-15T02:06:37.171Z,34.66
2023-08-15T02:09:40.820Z,34.42
2023-08-15T02:12:43.721Z,34.33
2023-08-15T02:15:47.528Z,34.59
2023-08-15T02:18:50.979Z,34.38
2023-08-15T02:21:54.020Z,33.29
2023-08-15T02:24:57.687Z,32.98
2023-08-15T02:28:03.109Z,32.80
2023-08-15T02:31:07.326Z,32.58
2023-08-15T02:34:10.867Z,32.91
2023-08-15T02:37:14.900Z,32.80
2023-08-15T02:40:18.691Z,32.98
2023-08-15T02:43:22.715Z,32.57
2023-08-15T02:46:28.594Z,32.44
2023-08-15T02:49:32.911Z,33.26
2023-08-15T02:52:36.703Z,34.14
2023-08-15T02:55:40.622Z,33.74
2023-08-15T02:58:44.439Z,33.68
2023-08-15T03:01:49.711Z,34.23
2023-08-15T03:04:53.116Z,33.95
2023-08-15T03:07:57.180Z,33.37
2023-08-15T03:11:01.026Z,33.33
2023-08-15T03:14:05.218Z,33.03
2023-08-15T03:17:09.412Z,32.62
2023-08-15T03:20:14.075Z,32.78
2023-08-15T03:23:18.289Z,32.46
2023-08-15T03:26:22.296Z,32.67
2023-08-15T03:29:26.296Z,32.58
2023-08-15T03:32:30.087Z,31.76
2023-08-15T03:35:33.851Z,30.90
2023-08-15T03:38:37.911Z,30.76
2023-08-15T03:41:41.630Z,30.81
2023-08-15T03:44:45.666Z,30.70
2023-08-15T03:47:48.675Z,30.37
2023-08-15T03:50:54.147Z,30.23
2023-08-15T03:53:57.172Z,29.94
2023-08-15T03:57:00.490Z,29.66
2023-08-15T04:00:03.679Z,29.65
2023-08-15T04:03:17.744Z,30.37
2023-08-15T04:06:21.983Z,30.93
2023-08-15T04:09:25.114Z,31.08
2023-08-15T04:12:28.137Z,30.97
2023-08-15T04:15:32.316Z,31.00
2023-08-15T04:18:37.330Z,31.15
2023-08-15T04:21:41.173Z,31.08
2023-08-15T04:24:44.503Z,30.99
2023-08-15T04:27:47.530Z,30.88
2023-08-15T04:30:51.622Z,30.82
2023-08-15T04:33:54.576Z,30.55
2023-08-15T04:36:57.965Z,30.54
2023-08-15T04:40:01.710Z,30.73
2023-08-15T04:43:05.996Z,30.75
2023-08-15T04:46:09.437Z,30.86
2023-08-15T04:49:12.921Z,31.01
2023-08-15T04:52:17.968Z,30.98
2023-08-15T04:55:21.469Z,30.88
2023-08-15T04:58:24.484Z,30.78
2023-08-15T05:01:27.852Z,30.65
2023-08-15T05:04:31.967Z,30.64
2023-08-15T05:07:35.675Z,30.47
2023-08-15T05:10:39.795Z,30.37
2023-08-15T05:13:45.471Z,30.29
2023-08-15T05:16:49.540Z,30.21
2023-08-15T05:19:53.688Z,30.08
2023-08-15T05:22:57.502Z,30.05
2023-08-15T05:26:01.816Z,29.88
2023-08-15T05:29:05.855Z,29.94
2023-08-15T05:32:09.621Z,29.87
2023-08-15T05:35:13.755Z,29.89
2023-08-15T05:38:18.494Z,29.90
2023-08-15T05:41:22.217Z,29.93
2023-08-15T05:44:26.649Z,29.88
2023-08-15T05:47:30.342Z,29.86
2023-08-15T05:50:34.130Z,29.79
2023-08-15T05:53:37.775Z,29.67
2023-08-15T05:56:43.012Z,29.41
2023-08-15T05:59:46.817Z,29.28
2023-08-15T06:02:50.909Z,29.19
2023-08-15T06:06:00.187Z,29.15
2023-08-15T06:09:04.120Z,28.98
2023-08-15T06:12:08.248Z,28.79
2023-08-15T06:15:12.486Z,28.61
2023-08-15T06:18:16.179Z,28.53
2023-08-15T06:21:20.128Z,28.51
2023-08-15T06:24:23.480Z,28.50
2023-08-15T06:27:27.834Z,28.50
2023-08-15T06:30:31.446Z,28.46
2023-08-15T06:33:35.094Z,28.50
2023-08-15T06:36:38.916Z,28.64
2023-08-15T06:39:42.610Z,28.84
2023-08-15T06:42:45.531Z,29.02
2023-08-15T06:45:49.504Z,29.22
2023-08-15T06:48:53.000Z,29.40
2023-08-15T06:51:56.870Z,29.51
2023-08-15T06:58:04.773Z,29.60
2023-08-15T07:01:08.979Z,29.56
2023-08-15T07:04:13.632Z,29.52
2023-08-15T07:07:17.878Z,29.58
2023-08-15T07:10:21.330Z,29.66
2023-08-15T07:13:25.452Z,29.80
2023-08-15T07:16:28.435Z,29.88
2023-08-15T07:19:33.697Z,30.04
2023-08-15T07:22:37.889Z,30.15
2023-08-15T07:25:45.404Z,30.34
2023-08-15T07:28:49.065Z,30.38
2023-08-15T07:31:52.957Z,30.56
2023-08-15T07:34:57.102Z,30.76
2023-08-15T07:38:02.029Z,30.43
2023-08-15T07:41:05.112Z,30.18
2023-08-15T07:44:08.730Z,30.15
2023-08-15T07:47:12.471Z,28.90
2023-08-15T07:50:24.581Z,27.85
2023-08-15T07:53:28.567Z,27.67
2023-08-15T07:56:33.428Z,27.66
2023-08-15T07:59:37.704Z,27.44
2023-08-15T08:02:42.376Z,27.43
2023-08-15T08:05:46.081Z,27.88
2023-08-15T08:08:49.401Z,28.33
2023-08-15T08:11:53.890Z,28.72
2023-08-15T08:14:58.195Z,28.99
2023-08-15T08:18:01.286Z,28.94
2023-08-15T08:21:06.837Z,28.83
2023-08-15T08:24:09.880Z,28.73
2023-08-15T08:27:13.438Z,28.58
2023-08-15T08:30:19.869Z,28.61
2023-08-15T08:33:23.169Z,28.52
2023-08-15T08:36:26.227Z,28.49
2023-08-15T08:39:32.677Z,28.18
2023-08-15T08:42:36.748Z,27.83
2023-08-15T08:45:44.776Z,27.68
2023-08-15T08:48:49.295Z,27.45
2023-08-15T08:51:53.133Z,27.45
2023-08-15T08:54:57.763Z,27.17
2023-08-15T08:58:04.457Z,26.98
2023-08-15T09:01:09.203Z,26.90
2023-08-15T09:04:12.769Z,26.95
2023-08-15T09:07:20.521Z,27.07
2023-08-15T09:10:24.955Z,27.12
2023-08-15T09:13:28.606Z,27.13
2023-08-15T09:16:33.086Z,27.07
2023-08-15T09:19:42.257Z,26.95
2023-08-15T09:22:48.292Z,26.77
2023-08-15T09:25:56.053Z,26.62
2023-08-15T09:28:59.301Z,26.53
2023-08-15T09:32:03.012Z,26.40
2023-08-15T09:35:07.474Z,26.33
2023-08-15T09:38:10.833Z,26.28
2023-08-15T09:41:15.025Z,26.33
2023-08-15T09:44:34.968Z,26.34
2023-08-15T09:47:42.494Z,26.34
2023-08-15T09:50:47.435Z,26.32
2023-08-15T09:53:51.597Z,26.32
2023-08-15T09:56:55.778Z,26.20
2023-08-15T09:59:59.149Z,26.08
2023-08-15T10:03:10.476Z,26.00
2023-08-15T10:06:15.695Z,25.87
2023-08-15T10:09:19.718Z,25.71
2023-08-15T10:12:23.611Z,25.63
2023-08-15T10:15:28.432Z,25.64
2023-08-15T10:18:33.139Z,25.59
2023-08-15T10:21:53.328Z,25.52
2023-08-15T10:24:57.114Z,25.42
2023-08-15T10:28:00.964Z,25.31
2023-08-15T10:31:05.315Z,25.28
2023-08-15T10:34:13.211Z,25.26
2023-08-15T10:37:39.186Z,25.19
2023-08-15T10:40:45.072Z,25.01
2023-08-15T10:43:54.475Z,25.01
2023-08-15T10:46:58.394Z,25.04
2023-08-15T10:50:02.049Z,25.02
2023-08-15T10:53:07.254Z,25.02
2023-08-15T10:56:11.635Z,24.96
2023-08-15T10:59:16.732Z,24.90
2023-08-15T11:02:20.372Z,24.75
2023-08-15T11:05:23.550Z,24.68
2023-08-15T11:08:27.225Z,24.62
2023-08-15T11:11:35.967Z,24.65
2023-08-15T11:14:39.573Z,24.70
2023-08-15T11:17:52.614Z,24.73
2023-08-15T11:20:55.790Z,24.63
2023-08-15T11:24:02.647Z,24.54
2023-08-15T11:27:06.209Z,24.48
2023-08-15T11:30:11.019Z,24.40
2023-08-15T11:33:14.212Z,24.31
2023-08-15T11:36:18.041Z,24.16
2023-08-15T11:39:21.835Z,24.07
2023-08-15T11:42:26.395Z,23.97
2023-08-15T11:45:33.760Z,23.92
2023-08-15T11:48:37.745Z,23.82
2023-08-15T11:51:41.223Z,23.77
2023-08-15T11:54:48.156Z,23.72
2023-08-15T11:57:53.766Z,23.63
2023-08-15T12:01:09.138Z,23.48
2023-08-15T12:04:15.780Z,23.40
2023-08-15T12:07:21.448Z,23.36
2023-08-15T12:10:26.396Z,23.28
2023-08-15T12:13:34.174Z,23.24
2023-08-15T12:16:41.459Z,23.15
2023-08-15T12:19:45.531Z,23.10
2023-08-15T12:22:49.535Z,23.06
2023-08-15T12:25:52.935Z,23.05
2023-08-15T12:28:56.997Z,23.01
2023-08-15T12:32:01.884Z,22.91
2023-08-15T12:35:06.447Z,22.83
2023-08-15T12:38:10.438Z,22.76
2023-08-15T12:41:15.604Z,22.65
2023-08-15T12:44:19.322Z,22.56
2023-08-15T12:47:24.046Z,22.57
2023-08-15T12:50:28.409Z,22.59
2023-08-15T12:53:32.944Z,22.58
2023-08-15T12:56:37.260Z,22.56
2023-08-15T12:59:41.431Z,22.54
2023-08-15T13:02:45.084Z,22.44
2023-08-15T13:05:49.233Z,22.27
2023-08-15T13:08:54.026Z,22.22
2023-08-15T13:11:58.866Z,22.22
2023-08-15T13:15:02.533Z,22.17
2023-08-15T13:18:07.534Z,22.11
2023-08-15T13:21:11.948Z,21.95
2023-08-15T13:27:43.715Z,21.69
2023-08-15T13:30:49.131Z,21.68
2023-08-15T13:33:52.904Z,21.72
2023-08-15T13:36:57.855Z,21.71
2023-08-15T13:40:02.197Z,21.68
2023-08-15T13:43:07.022Z,21.52
2023-08-15T13:46:12.198Z,21.44
2023-08-15T13:49:16.919Z,21.34
2023-08-15T13:52:21.534Z,21.33
2023-08-15T13:55:26.548Z,21.26
2023-08-15T13:58:30.923Z,21.21
2023-08-15T14:01:35.817Z,21.22
2023-08-15T14:04:39.656Z,21.18
2023-08-15T14:07:44.182Z,21.09
2023-08-15T14:10:47.823Z,21.10
2023-08-15T14:13:51.885Z,21.09
2023-08-15T14:16:56.234Z,21.04
2023-08-15T14:19:59.997Z,20.95
2023-08-15T14:23:04.913Z,20.90
2023-08-15T14:26:08.688Z,20.91
2023-08-15T14:29:12.740Z,20.88
2023-08-15T14:32:15.686Z,20.85
2023-08-15T14:35:21.264Z,20.76
2023-08-15T14:38:25.242Z,20.73
2023-08-15T14:41:29.010Z,20.74
2023-08-15T14:44:34.284Z,20.73
2023-08-15T14:47:41.320Z,20.70
2023-08-15T14:50:45.203Z,20.60
2023-08-15T14:53:49.359Z,20.54
2023-08-15T14:56:53.002Z,20.53
2023-08-15T14:59:57.007Z,20.45
2023-08-15T15:03:01.163Z,20.42
2023-08-15T15:06:04.614Z,20.42
2023-08-15T15:09:07.574Z,20.43
2023-08-15T15:12:11.495Z,20.38
2023-08-15T15:15:15.212Z,20.35
2023-08-15T15:18:18.810Z,20.38
2023-08-15T15:21:21.678Z,20.28
2023-08-15T15:24:24.934Z,20.15
2023-08-15T15:27:28.382Z,20.05
2023-08-15T15:30:31.916Z,20.03
2023-08-15T15:33:35.415Z,20.03
2023-08-15T15:36:38.710Z,19.97
2023-08-15T15:39:42.194Z,19.92
2023-08-15T15:42:45.033Z,19.86
2023-08-15T15:45:48.092Z,19.79
2023-08-15T15:48:51.964Z,19.74
2023-08-15T15:51:55.764Z,19.68
2023-08-15T15:54:59.223Z,19.70
2023-08-15T15:58:02.064Z,19.64
2023-08-15T16:01:06.228Z,19.62
2023-08-15T16:04:10.641Z,19.59
2023-08-15T16:07:16.520Z,19.59
2023-08-15T16:10:19.993Z,19.57
2023-08-15T16:13:24.698Z,19.58
2023-08-15T16:16:28.008Z,19.53
2023-08-15T16:19:31.013Z,19.36
2023-08-15T16:22:34.984Z,19.22
2023-08-15T16:25:37.979Z,19.28
2023-08-15T16:28:42.438Z,19.29
2023-08-15T16:31:46.125Z,19.23
2023-08-15T16:34:49.411Z,19.27
2023-08-15T16:37:52.516Z,19.31
2023-08-15T16:40:56.476Z,19.29
2023-08-15T16:44:00.255Z,19.22
2023-08-15T16:47:04.765Z,19.08
2023-08-15T16:50:08.377Z,18.98
2023-08-15T16:53:12.290Z,18.92
2023-08-15T16:56:17.759Z,18.91
2023-08-15T16:59:21.888Z,18.94
2023-08-15T17:02:26.077Z,18.91
2023-08-15T17:05:30.357Z,18.83
2023-08-15T17:08:34.445Z,18.73
2023-08-15T17:11:37.702Z,18.80
2023-08-15T17:14:41.610Z,18.89
2023-08-15T17:17:45.681Z,18.95
2023-08-15T17:20:48.717Z,18.98
2023-08-15T17:23:52.628Z,18.94
2023-08-15T17:26:56.283Z,18.94
2023-08-15T17:29:59.551Z,18.90
2023-08-15T17:33:02.506Z,18.85
2023-08-15T17:36:06.763Z,18.74
2023-08-15T17:39:10.508Z,18.76
2023-08-15T17:42:14.446Z,18.71
2023-08-15T17:45:18.271Z,18.64
2023-08-15T17:48:21.534Z,18.63
2023-08-15T17:51:24.619Z,18.65
2023-08-15T17:54:28.187Z,18.63
2023-08-15T17:57:31.389Z,18.58
2023-08-15T18:00:35.505Z,18.54
2023-08-15T18:03:39.222Z,18.55
2023-08-15T18:06:42.747Z,18.54
2023-08-15T18:09:45.841Z,18.49
2023-08-15T18:12:49.850Z,18.47
2023-08-15T18:15:53.628Z,18.43
2023-08-15T18:18:57.981Z,18.35
2023-08-15T18:22:01.442Z,18.30
2023-08-15T18:25:05.699Z,18.22
2023-08-15T18:28:09.914Z,18.14
2023-08-15T18:31:13.622Z,18.08
2023-08-15T18:34:17.246Z,18.07
2023-08-15T18:37:21.634Z,18.04
2023-08-15T18:40:24.588Z,18.01
2023-08-15T18:43:27.921Z,17.99
2023-08-15T18:46:30.968Z,17.99
2023-08-15T18:49:34.304Z,17.99
2023-08-15T18:52:37.333Z,17.94
2023-08-15T18:55:41.530Z,17.89
2023-08-15T18:58:47.782Z,17.88
2023-08-15T19:01:51.951Z,17.84
2023-08-15T19:04:59.747Z,17.66
2023-08-15T19:08:03.156Z,17.52
2023-08-15T19:11:06.791Z,17.47
2023-08-15T19:14:11.086Z,17.44
2023-08-15T19:17:14.455Z,17.55
2023-08-15T19:20:27.595Z,17.64
2023-08-15T19:23:31.132Z,17.72
2023-08-15T19:26:35.338Z,17.70
2023-08-15T19:29:38.344Z,17.66
2023-08-15T19:32:42.032Z,17.65
2023-08-15T19:35:47.176Z,17.64
2023-08-15T19:38:51.500Z,17.67
2023-08-15T19:41:54.408Z,17.59
2023-08-15T19:44:58.619Z,17.55
2023-08-15T19:48:01.648Z,17.52
2023-08-15T19:51:05.642Z,17.50
2023-08-15T19:54:08.628Z,17.45
2023-08-15T19:57:12.683Z,17.32
2023-08-15T20:00:15.821Z,17.36
2023-08-15T20:03:19.654Z,17.26
2023-08-15T20:06:22.636Z,17.16
2023-08-15T20:09:26.340Z,17.12
2023-08-15T20:12:29.888Z,17.16
2023-08-15T20:15:33.243Z,17.15
2023-08-15T20:18:36.262Z,17.10
2023-08-15T20:21:39.299Z,17.13
2023-08-15T20:24:42.879Z,17.13
2023-08-15T20:27:46.565Z,17.11
2023-08-15T20:30:49.567Z,17.08
2023-08-15T20:33:53.614Z,17.09
2023-08-15T20:36:57.191Z,17.08
2023-08-15T20:40:00.487Z,17.09
2023-08-15T20:43:03.532Z,17.07
2023-08-15T20:46:06.798Z,17.02
2023-08-15T20:49:10.308Z,16.95
2023-08-15T20:52:14.037Z,16.77
2023-08-15T20:55:18.222Z,16.71
2023-08-15T20:58:22.333Z,16.63
2023-08-15T21:01:25.517Z,16.63
2023-08-15T21:04:28.918Z,16.73
2023-08-15T21:07:32.597Z,16.75
2023-08-15T21:10:36.432Z,16.75
2023-08-15T21:13:39.744Z,16.77
2023-08-15T21:16:42.781Z,16.96
2023-08-15T21:19:46.450Z,17.03
2023-08-15T21:22:50.121Z,16.97
2023-08-15T21:25:54.072Z,17.03
2023-08-15T21:28:57.078Z,17.12
2023-08-15T21:32:01.211Z,17.20
2023-08-15T21:35:05.103Z,17.24
2023-08-15T21:38:08.427Z,17.27
2023-08-15T21:41:12.008Z,17.17
2023-08-15T21:44:15.406Z,17.09
2023-08-15T21:47:19.130Z,17.05
2023-08-15T21:50:23.065Z,16.98
2023-08-15T21:53:26.683Z,16.97
2023-08-15T21:56:31.885Z,16.86
2023-08-15T21:59:35.158Z,16.88
2023-08-15T22:02:39.497Z,16.92
2023-08-15T22:05:48.226Z,16.94
2023-08-15T22:08:52.612Z,17.08
2023-08-15T22:11:55.559Z,17.16
2023-08-15T22:14:59.643Z,17.18
2023-08-15T22:18:17.771Z,17.26
2023-08-15T22:21:23.488Z,17.34
2023-08-15T22:24:26.511Z,17.29
2023-08-15T22:27:30.198Z,17.22
2023-08-15T22:30:33.301Z,17.02
2023-08-15T22:33:36.291Z,16.96
2023-08-15T22:36:39.870Z,16.94
2023-08-15T22:39:43.340Z,16.92
2023-08-15T22:42:46.322Z,16.96
2023-08-15T22:45:49.676Z,17.06
2023-08-15T22:48:53.027Z,17.09
2023-08-15T22:51:57.188Z,17.09
2023-08-15T22:55:00.864Z,17.15
2023-08-15T22:58:03.839Z,17.34
2023-08-15T23:01:07.847Z,17.51
2023-08-15T23:04:10.848Z,17.35
2023-08-15T23:07:14.544Z,17.15
2023-08-15T23:10:17.871Z,17.28
2023-08-15T23:13:22.636Z,17.50
2023-08-15T23:16:26.693Z,17.59
2023-08-15T23:19:29.921Z,17.52
2023-08-15T23:22:33.188Z,17.54
2023-08-15T23:25:36.431Z,17.67
2023-08-15T23:28:40.501Z,17.67
2023-08-15T23:31:43.521Z,17.62
2023-08-15T23:34:46.871Z,17.76
2023-08-15T23:37:49.951Z,17.89
2023-08-15T23:40:54.002Z,17.77
2023-08-15T23:43:57.683Z,17.62
2023-08-15T23:47:01.793Z,17.81
2023-08-15T23:50:07.085Z,17.98
2023-08-15T23:53:10.668Z,18.02
2023-08-15T23:56:14.557Z,18.01
2023-08-15T23:59:18.606Z,18.15
